Time;durP1;ratioP1;P1;durP2;ratioP2;P2;SDS_P1;SDS_P2;PMS_P1;PMS_P2;Temp;Humidity;BMP_temperature;BMP_pressure;BME280_temperature;BME280_humidity;BME280_pressure;Samples;Min_cycle;Max_cycle;Signal;HPM_P1;HPM_P2
2021/07/26 06:22:17;;;;;;;5.30;2.90;;;;;;;;;;10493799;28;20049;-89
2021/07/26 06:33:22;;;;;;;3.67;2.90;;;;;;;;;;10532073;28;20587;-89
2021/07/26 06:38:24;;;;;;;3.30;2.90;;;;;;;;;;10519042;28;20438;-89
2021/07/26 06:43:33;;;;;;;;;;;;;;;;;;10552514;28;20024;-83
2021/07/26 06:54:27;;;;;;;7.82;2.90;;;;;;;;;;10590251;28;20056;-82
2021/07/26 06:59:27;;;;;;;3.53;2.40;;;;;;;;;;10568635;28;20039;-86
2021/07/26 07:15:55;;;;;;;3.53;2.57;;;;;;;;;;10557963;28;20020;-89
2021/07/26 07:21:32;;;;;;;3.97;2.40;;;;;;;;;;10549365;22;20352;-87
2021/07/26 07:26:35;;;;;;;3.50;2.50;;;;;;;;;;10495984;28;20066;-88
2021/07/26 07:31:52;;;;;;;3.47;2.50;;;;;;;;;;10459058;28;20028;-86
2021/07/26 07:36:58;;;;;;;4.30;2.70;;;;;;;;;;10460629;28;20029;-86
2021/07/26 07:47:53;;;;;;;3.38;2.20;;;;;;;;;;10473544;28;20104;-86
2021/07/26 07:52:58;;;;;;;4.72;2.72;;;;;;;;;;10452881;28;20044;-86
2021/07/26 07:58:06;;;;;;;3.80;2.63;;;;;;;;;;10455721;28;20057;-86
2021/07/26 08:03:19;;;;;;;3.60;3.03;;;;;;;;;;10456768;28;20044;-87
2021/07/26 08:08:26;;;;;;;5.75;2.40;;;;;;;;;;10473546;28;20017;-87
2021/07/26 08:13:28;;;;;;;5.93;3.58;;;;;;;;;;10450717;28;20036;-87
2021/07/26 08:18:43;;;;;;;2.70;2.47;;;;;;;;;;10451756;28;20063;-86
2021/07/26 08:23:45;;;;;;;4.75;3.00;;;;;;;;;;10452537;28;20029;-87
2021/07/26 08:28:46;;;;;;;4.43;3.40;;;;;;;;;;10476442;28;20078;-85
2021/07/26 08:33:47;;;;;;;4.15;3.30;;;;;;;;;;10450063;28;20094;-83
2021/07/26 08:38:48;;;;;;;5.10;3.72;;;;;;;;;;10457000;28;20116;-85
2021/07/26 08:43:49;;;;;;;6.60;3.83;;;;;;;;;;10451860;28;20057;-85
2021/07/26 08:48:50;;;;;;;4.00;3.03;;;;;;;;;;10453647;28;20032;-85
2021/07/26 08:53:51;;;;;;;3.03;2.63;;;;;;;;;;10451183;28;20061;-85
2021/07/26 08:58:52;;;;;;;4.38;2.92;;;;;;;;;;10448594;28;20111;-87
2021/07/26 09:03:53;;;;;;;4.18;3.10;;;;;;;;;;10450999;28;20037;-87
2021/07/26 09:08:55;;;;;;;5.30;3.00;;;;;;;;;;10449982;28;20166;-87
2021/07/26 09:13:56;;;;;;;3.80;2.72;;;;;;;;;;10448729;28;20021;-88
2021/07/26 09:19:02;;;;;;;3.85;2.58;;;;;;;;;;10451058;28;20100;-87
2021/07/26 09:24:04;;;;;;;5.32;3.28;;;;;;;;;;10451076;28;20040;-87
2021/07/26 09:29:24;;;;;;;5.18;3.60;;;;;;;;;;10450522;28;20029;-86
2021/07/26 09:34:25;;;;;;;4.57;2.55;;;;;;;;;;10450768;28;20020;-86
2021/07/26 09:39:39;;;;;;;4.38;2.92;;;;;;;;;;10446592;28;20059;-87
2021/07/26 09:45:32;;;;;;;3.90;3.40;;;;;;;;;;10447343;28;20041;-87
2021/07/26 09:50:33;;;;;;;3.72;3.35;;;;;;;;;;10460214;28;20036;-86
2021/07/26 09:55:34;;;;;;;3.63;3.10;;;;;;;;;;10442043;28;20025;-86
2021/07/26 10:00:36;;;;;;;4.60;4.10;;;;;;;;;;10445900;28;20029;-86
2021/07/26 10:05:38;;;;;;;5.38;3.38;;;;;;;;;;10445751;28;20017;-86
2021/07/26 10:10:42;;;;;;;3.83;3.30;;;;;;;;;;10445887;28;20055;-86
2021/07/26 10:15:43;;;;;;;4.35;3.42;;;;;;;;;;10446023;28;20044;-87
2021/07/26 10:20:47;;;;;;;3.25;2.92;;;;;;;;;;10448724;28;20041;-86
2021/07/26 10:25:56;;;;;;;4.00;3.38;;;;;;;;;;10459507;28;20082;-85
2021/07/26 10:31:00;;;;;;;5.03;3.60;;;;;;;;;;10459146;28;20425;-86
2021/07/26 10:36:01;;;;;;;5.75;3.67;;;;;;;;;;10449727;28;20033;-87
2021/07/26 10:41:02;;;;;;;4.68;3.67;;;;;;;;;;10449653;28;20132;-87
2021/07/26 10:46:05;;;;;;;6.72;4.07;;;;;;;;;;10449262;28;20079;-88
2021/07/26 10:51:27;;;;;;;4.15;3.30;;;;;;;;;;10446532;28;20044;-88
2021/07/26 10:56:50;;;;;;;4.50;3.80;;;;;;;;;;10449091;28;20036;-88
2021/07/26 11:02:07;;;;;;;4.00;3.55;;;;;;;;;;10470204;28;20339;-88
2021/07/26 11:07:38;;;;;;;4.53;3.20;;;;;;;;;;10451590;28;20025;-88
2021/07/26 11:12:52;;;;;;;3.20;2.90;;;;;;;;;;10454029;28;20070;-88
2021/07/26 11:18:21;;;;;;;3.35;2.95;;;;;;;;;;10453985;28;20032;-89
2021/07/26 11:23:35;;;;;;;3.17;2.88;;;;;;;;;;10454811;28;20085;-88
2021/07/26 11:28:42;;;;;;;3.20;2.65;;;;;;;;;;10450497;28;20028;-88
2021/07/26 11:33:59;;;;;;;3.00;2.70;;;;;;;;;;10448443;28;20040;-88
2021/07/26 11:39:13;;;;;;;5.18;3.13;;;;;;;;;;10453715;28;20043;-87
2021/07/26 11:44:28;;;;;;;2.90;2.50;;;;;;;;;;10454328;28;20466;-88
2021/07/26 11:49:32;;;;;;;4.68;2.40;;;;;;;;;;10446231;28;20035;-87
2021/07/26 11:54:33;;;;;;;6.55;2.97;;;;;;;;;;10446313;28;20045;-88
2021/07/26 11:59:47;;;;;;;3.22;2.80;;;;;;;;;;10445783;28;20032;-88
2021/07/26 12:04:48;;;;;;;4.43;2.72;;;;;;;;;;10448739;28;20013;-88
2021/07/26 12:10:03;;;;;;;4.10;2.58;;;;;;;;;;10447857;28;20059;-90
2021/07/26 12:20:54;;;;;;;3.33;2.70;;;;;;;;;;10469042;28;20045;-86
2021/07/26 13:05:05;;;;;;;4.53;2.80;;;;;;;;;;10593436;28;20040;-88
2021/07/26 13:10:10;;;;;;;5.18;4.68;;;;;;;;;;10591928;28;20110;-88
2021/07/26 13:15:14;;;;;;;4.28;2.70;;;;;;;;;;10581390;28;20138;-88
2021/07/26 13:20:15;;;;;;;4.70;2.70;;;;;;;;;;10607633;22;20384;-86
2021/07/26 13:25:32;;;;;;;3.38;3.08;;;;;;;;;;10585971;28;20034;-84
2021/07/26 13:30:52;;;;;;;6.63;3.00;;;;;;;;;;10581170;28;20099;-87
2021/07/26 13:36:29;;;;;;;3.25;2.83;;;;;;;;;;10603707;28;20032;-84
2021/07/26 13:41:41;;;;;;;4.90;3.00;;;;;;;;;;10608424;28;20050;-85
2021/07/26 13:46:54;;;;;;;3.92;3.30;;;;;;;;;;10599694;28;20024;-84
2021/07/26 14:03:37;;;;;;;4.13;3.30;;;;;;;;;;10595544;28;20036;-86
2021/07/26 14:08:38;;;;;;;4.97;3.20;;;;;;;;;;10579953;28;20489;-84
2021/07/26 14:13:39;;;;;;;3.65;3.30;;;;;;;;;;10594451;28;20067;-85
2021/07/26 14:19:02;;;;;;;5.88;3.00;;;;;;;;;;10595975;28;20039;-85
2021/07/26 14:24:08;;;;;;;2.97;2.67;;;;;;;;;;10616050;28;20063;-84
2021/07/26 14:29:14;;;;;;;3.65;2.90;;;;;;;;;;10595841;28;20059;-85
2021/07/26 14:34:40;;;;;;;3.28;2.40;;;;;;;;;;10595463;28;20104;-84
2021/07/26 14:40:04;;;;;;;3.38;2.65;;;;;;;;;;10592258;28;20103;-84
2021/07/26 14:45:17;;;;;;;4.32;3.50;;;;;;;;;;10582349;28;20035;-87
2021/07/26 15:01:42;;;;;;;4.07;3.00;;;;;;;;;;10601610;28;20431;-86
2021/07/26 15:06:44;;;;;;;3.67;3.17;;;;;;;;;;10585063;28;20031;-85
2021/07/26 15:12:14;;;;;;;3.85;2.60;;;;;;;;;;10591200;28;20091;-87
2021/07/26 15:17:18;;;;;;;4.00;3.27;;;;;;;;;;10595065;28;20067;-86
2021/07/26 15:22:19;;;;;;;4.15;2.80;;;;;;;;;;10588823;28;20049;-86
2021/07/26 15:27:20;;;;;;;4.03;2.80;;;;;;;;;;10593815;28;20035;-84
2021/07/26 15:32:21;;;;;;;2.95;2.67;;;;;;;;;;10595234;28;20051;-86
2021/07/26 15:37:22;;;;;;;3.45;2.80;;;;;;;;;;10607271;28;20024;-86
2021/07/26 15:42:24;;;;;;;3.00;2.60;;;;;;;;;;10604599;28;20046;-84
2021/07/26 15:47:25;;;;;;;2.92;2.60;;;;;;;;;;10612285;28;20043;-85
2021/07/26 15:52:26;;;;;;;2.50;2.30;;;;;;;;;;10593431;28;20036;-86
2021/07/26 15:57:27;;;;;;;2.80;2.30;;;;;;;;;;10586951;28;20028;-85
2021/07/26 16:02:28;;;;;;;2.70;2.30;;;;;;;;;;10584916;28;20590;-84
2021/07/26 16:07:32;;;;;;;3.63;2.30;;;;;;;;;;10583265;28;20054;-84
2021/07/26 16:12:33;;;;;;;3.47;2.38;;;;;;;;;;10580469;28;20100;-84
2021/07/26 16:17:34;;;;;;;3.33;2.20;;;;;;;;;;10583848;28;20051;-84
2021/07/26 16:22:39;;;;;;;2.70;1.95;;;;;;;;;;10584479;28;20097;-86
2021/07/26 16:27:40;;;;;;;10.20;9.10;;;;;;;;;;10575887;28;20044;-85
2021/07/26 16:32:45;;;;;;;4.07;3.67;;;;;;;;;;10574509;28;20039;-85
2021/07/26 16:37:46;;;;;;;4.10;2.20;;;;;;;;;;10573126;28;20043;-88
2021/07/26 16:42:47;;;;;;;2.45;1.90;;;;;;;;;;10576408;28;20042;-85
2021/07/26 16:47:48;;;;;;;3.25;2.00;;;;;;;;;;10575343;28;20088;-88
2021/07/26 16:52:49;;;;;;;4.53;2.65;;;;;;;;;;10579392;28;20093;-87
2021/07/26 16:57:50;;;;;;;3.75;2.35;;;;;;;;;;10578933;28;20039;-89
2021/07/26 17:02:53;;;;;;;3.95;2.35;;;;;;;;;;10578070;28;20040;-88
2021/07/26 17:07:54;;;;;;;2.53;2.30;;;;;;;;;;10577161;28;20038;-88
2021/07/26 17:12:55;;;;;;;2.85;2.10;;;;;;;;;;10573668;28;20027;-87
2021/07/26 17:17:56;;;;;;;2.95;1.80;;;;;;;;;;10575278;28;20441;-88
2021/07/26 17:22:57;;;;;;;2.72;1.85;;;;;;;;;;10577016;28;20176;-87
2021/07/26 17:27:58;;;;;;;4.18;1.58;;;;;;;;;;10603295;28;20031;-87
2021/07/26 17:32:59;;;;;;;2.50;2.28;;;;;;;;;;10582287;28;20126;-87
2021/07/26 17:38:00;;;;;;;2.28;1.88;;;;;;;;;;10599244;28;20020;-87
2021/07/26 17:43:01;;;;;;;2.10;1.75;;;;;;;;;;10573016;28;20501;-86
2021/07/26 17:48:02;;;;;;;2.70;2.00;;;;;;;;;;10569786;28;20063;-86
2021/07/26 17:53:03;;;;;;;2.90;2.35;;;;;;;;;;10569998;28;20049;-86
2021/07/26 17:58:04;;;;;;;2.72;2.17;;;;;;;;;;10573869;28;20055;-86
2021/07/26 18:03:06;;;;;;;2.70;2.00;;;;;;;;;;10573005;28;20092;-87
2021/07/26 18:08:11;;;;;;;2.63;2.13;;;;;;;;;;10584042;28;20031;-87
2021/07/26 18:13:12;;;;;;;2.90;2.17;;;;;;;;;;10570086;28;20028;-87
2021/07/26 18:18:13;;;;;;;2.60;2.30;;;;;;;;;;10566783;28;20036;-87
2021/07/26 18:23:14;;;;;;;3.10;2.40;;;;;;;;;;10568383;28;20032;-87
2021/07/26 18:28:15;;;;;;;2.58;2.20;;;;;;;;;;10567924;28;20077;-87
2021/07/26 18:33:16;;;;;;;2.78;2.38;;;;;;;;;;10576872;28;20052;-87
2021/07/26 18:38:17;;;;;;;2.40;2.20;;;;;;;;;;10584587;28;20047;-87
2021/07/26 18:43:18;;;;;;;2.47;2.13;;;;;;;;;;10587861;28;20027;-86
2021/07/26 18:48:19;;;;;;;3.85;2.42;;;;;;;;;;10570313;28;20109;-86
2021/07/26 18:53:20;;;;;;;2.85;2.38;;;;;;;;;;10580828;28;20024;-87
2021/07/26 18:58:21;;;;;;;3.10;2.33;;;;;;;;;;10612246;28;20039;-86
2021/07/26 19:03:22;;;;;;;5.72;2.90;;;;;;;;;;10580858;28;20103;-87
2021/07/26 19:08:23;;;;;;;6.53;3.50;;;;;;;;;;10581525;28;20055;-87
2021/07/26 19:13:24;;;;;;;5.25;3.33;;;;;;;;;;10617599;28;20383;-86
